Terminal Aerodrome Forecast
Issued by NWS Boston, MA

Home | Current Version | Previous Version | Text Only | Print | Product List | Glossary On
Versions: 1 2 3 4 5 6 7 8 9 10 11 12 13 14 15 16 17 18 19 20 21 22 23 24 25 26 27 28 29 30 31 32 33 34 35 36 37 38 39 40 41 42 43
403
FTUS41 KBOX 272323
TAFBOS
TAF
KBOS 272323Z 2800/2906 10007KT P6SM BKN250
     FM280100 22010KT P6SM BKN250
     FM281000 23008KT 6SM BR SCT005
     FM281300 24007KT P6SM SCT110
     FM282100 24009KT P6SM BKN050=

USA.gov is the U.S. government's official web portal to all federal, state and local government web resources and services.